sensor_id;sensor_type;location;lat;lon;timestamp;pressure;altitude;pressure_sealevel;temperature;humidity
56811;BME280;42691;47.234;27.494;2022-11-09T00:01:39;100305.84;;;15.31;100.00
56811;BME280;42691;47.234;27.494;2022-11-09T00:04:05;100300.00;;;15.26;100.00
56811;BME280;42691;47.234;27.494;2022-11-09T00:06:31;100294.44;;;15.16;100.00
56811;BME280;42691;47.234;27.494;2022-11-09T00:08:59;100296.13;;;15.17;100.00
56811;BME280;42691;47.234;27.494;2022-11-09T00:11:24;100301.44;;;15.16;100.00
56811;BME280;42691;47.234;27.494;2022-11-09T00:13:50;100294.59;;;15.13;100.00
56811;BME280;42691;47.234;27.494;2022-11-09T00:16:18;100289.44;;;15.12;100.00
56811;BME280;42691;47.234;27.494;2022-11-09T00:18:44;100297.41;;;15.10;100.00
56811;BME280;42691;47.234;27.494;2022-11-09T00:21:18;100296.56;;;15.10;100.00
56811;BME280;42691;47.234;27.494;2022-11-09T00:23:44;100295.81;;;15.08;100.00
56811;BME280;42691;47.234;27.494;2022-11-09T00:26:11;100288.88;;;15.07;100.00
56811;BME280;42691;47.234;27.494;2022-11-09T00:28:38;100289.06;;;15.04;100.00
56811;BME280;42691;47.234;27.494;2022-11-09T00:31:08;100293.53;;;15.01;100.00
56811;BME280;42691;47.234;27.494;2022-11-09T00:33:34;100290.34;;;14.96;100.00
56811;BME280;42691;47.234;27.494;2022-11-09T00:36:04;100287.88;;;14.93;100.00
56811;BME280;42691;47.234;27.494;2022-11-09T00:38:34;100280.22;;;14.90;100.00
56811;BME280;42691;47.234;27.494;2022-11-09T00:41:01;100278.91;;;14.82;100.00
56811;BME280;42691;47.234;27.494;2022-11-09T00:43:27;100281.38;;;14.85;100.00
56811;BME280;42691;47.234;27.494;2022-11-09T00:45:52;100277.06;;;14.84;100.00
56811;BME280;42691;47.234;27.494;2022-11-09T00:48:18;100282.22;;;14.85;100.00
56811;BME280;42691;47.234;27.494;2022-11-09T00:50:48;100279.59;;;14.85;100.00
56811;BME280;42691;47.234;27.494;2022-11-09T00:53:14;100281.28;;;14.86;100.00
56811;BME280;42691;47.234;27.494;2022-11-09T00:55:39;100275.19;;;14.86;100.00
56811;BME280;42691;47.234;27.494;2022-11-09T00:58:04;100284.84;;;14.85;100.00
56811;BME280;42691;47.234;27.494;2022-11-09T01:00:30;100282.31;;;14.84;100.00
56811;BME280;42691;47.234;27.494;2022-11-09T01:02:55;100277.31;;;14.79;100.00
56811;BME280;42691;47.234;27.494;2022-11-09T01:05:21;100273.09;;;14.77;100.00
56811;BME280;42691;47.234;27.494;2022-11-09T01:07:46;100253.28;;;14.57;100.00
56811;BME280;42691;47.234;27.494;2022-11-09T01:10:12;100279.28;;;14.76;100.00
56811;BME280;42691;47.234;27.494;2022-11-09T01:12:37;100272.69;;;14.68;100.00
56811;BME280;42691;47.234;27.494;2022-11-09T01:15:03;100278.94;;;14.66;100.00
56811;BME280;42691;47.234;27.494;2022-11-09T01:17:28;100268.63;;;14.63;100.00
56811;BME280;42691;47.234;27.494;2022-11-09T01:19:54;100266.78;;;14.65;100.00
56811;BME280;42691;47.234;27.494;2022-11-09T01:22:19;100253.59;;;14.66;100.00
56811;BME280;42691;47.234;27.494;2022-11-09T01:24:45;100257.06;;;14.67;100.00
56811;BME280;42691;47.234;27.494;2022-11-09T01:27:10;100264.16;;;14.65;100.00
56811;BME280;42691;47.234;27.494;2022-11-09T01:29:35;100260.03;;;14.61;100.00
56811;BME280;42691;47.234;27.494;2022-11-09T01:32:02;100266.19;;;14.60;100.00
56811;BME280;42691;47.234;27.494;2022-11-09T01:34:28;100260.97;;;14.60;100.00
56811;BME280;42691;47.234;27.494;2022-11-09T01:36:53;100264.50;;;14.59;100.00
56811;BME280;42691;47.234;27.494;2022-11-09T01:39:19;100265.59;;;14.55;100.00
56811;BME280;42691;47.234;27.494;2022-11-09T01:41:45;100268.41;;;14.52;100.00
56811;BME280;42691;47.234;27.494;2022-11-09T01:51:57;100272.09;;;14.48;100.00
56811;BME280;42691;47.234;27.494;2022-11-09T01:54:28;100267.63;;;14.50;100.00
56811;BME280;42691;47.234;27.494;2022-11-09T01:56:58;100257.22;;;14.48;100.00
56811;BME280;42691;47.234;27.494;2022-11-09T01:59:29;100258.00;;;14.50;100.00
56811;BME280;42691;47.234;27.494;2022-11-09T02:01:57;100254.56;;;14.50;100.00
56811;BME280;42691;47.234;27.494;2022-11-09T02:04:32;100252.06;;;14.47;100.00
56811;BME280;42691;47.234;27.494;2022-11-09T02:06:59;100252.72;;;14.34;100.00
56811;BME280;42691;47.234;27.494;2022-11-09T02:09:38;100257.63;;;14.25;100.00
56811;BME280;42691;47.234;27.494;2022-11-09T02:12:06;100258.63;;;14.22;100.00
56811;BME280;42691;47.234;27.494;2022-11-09T02:14:32;100255.25;;;14.20;100.00
56811;BME280;42691;47.234;27.494;2022-11-09T02:16:59;100229.72;;;14.08;100.00
56811;BME280;42691;47.234;27.494;2022-11-09T02:19:25;100255.25;;;14.20;100.00
56811;BME280;42691;47.234;27.494;2022-11-09T02:21:50;100264.03;;;14.19;100.00
56811;BME280;42691;47.234;27.494;2022-11-09T02:24:17;100254.78;;;14.12;100.00
56811;BME280;42691;47.234;27.494;2022-11-09T02:26:48;100273.56;;;14.20;100.00
56811;BME280;42691;47.234;27.494;2022-11-09T02:29:17;100274.34;;;14.22;100.00
56811;BME280;42691;47.234;27.494;2022-11-09T02:31:48;100280.50;;;14.21;100.00
56811;BME280;42691;47.234;27.494;2022-11-09T02:34:19;100285.13;;;14.16;100.00
56811;BME280;42691;47.234;27.494;2022-11-09T02:36:44;100292.22;;;14.14;100.00
56811;BME280;42691;47.234;27.494;2022-11-09T02:39:10;100286.34;;;14.09;100.00
56811;BME280;42691;47.234;27.494;2022-11-09T02:41:51;100287.44;;;14.05;100.00
56811;BME280;42691;47.234;27.494;2022-11-09T02:44:18;100288.38;;;14.04;100.00
56811;BME280;42691;47.234;27.494;2022-11-09T02:46:44;100280.53;;;14.04;100.00
56811;BME280;42691;47.234;27.494;2022-11-09T02:49:09;100274.59;;;14.00;100.00
56811;BME280;42691;47.234;27.494;2022-11-09T02:51:35;100279.00;;;14.00;100.00
56811;BME280;42691;47.234;27.494;2022-11-09T02:54:00;100278.84;;;14.03;100.00
56811;BME280;42691;47.234;27.494;2022-11-09T02:56:26;100282.03;;;14.08;100.00
56811;BME280;42691;47.234;27.494;2022-11-09T02:58:52;100281.03;;;14.11;100.00
56811;BME280;42691;47.234;27.494;2022-11-09T03:01:17;100285.28;;;14.13;100.00
56811;BME280;42691;47.234;27.494;2022-11-09T03:03:43;100278.19;;;14.15;100.00
56811;BME280;42691;47.234;27.494;2022-11-09T03:06:08;100278.03;;;14.18;100.00
56811;BME280;42691;47.234;27.494;2022-11-09T03:08:34;100274.41;;;14.21;100.00
56811;BME280;42691;47.234;27.494;2022-11-09T03:10:59;100274.16;;;14.25;100.00
56811;BME280;42691;47.234;27.494;2022-11-09T03:13:25;100277.53;;;14.27;100.00
56811;BME280;42691;47.234;27.494;2022-11-09T03:15:50;100274.75;;;14.30;100.00
56811;BME280;42691;47.234;27.494;2022-11-09T03:18:16;100269.44;;;14.32;100.00
56811;BME280;42691;47.234;27.494;2022-11-09T03:20:41;100270.13;;;14.35;100.00
56811;BME280;42691;47.234;27.494;2022-11-09T03:23:08;100280.25;;;14.42;100.00
56811;BME280;42691;47.234;27.494;2022-11-09T03:25:35;100281.78;;;14.46;100.00
56811;BME280;42691;47.234;27.494;2022-11-09T03:28:04;100271.31;;;14.46;100.00
56811;BME280;42691;47.234;27.494;2022-11-09T03:30:30;100275.41;;;14.51;100.00
56811;BME280;42691;47.234;27.494;2022-11-09T03:33:05;100283.19;;;14.53;100.00
56811;BME280;42691;47.234;27.494;2022-11-09T03:35:35;100281.31;;;14.55;100.00
56811;BME280;42691;47.234;27.494;2022-11-09T03:38:01;100273.72;;;14.50;100.00
56811;BME280;42691;47.234;27.494;2022-11-09T03:40:27;100286.56;;;14.55;100.00
56811;BME280;42691;47.234;27.494;2022-11-09T03:42:52;100282.06;;;14.57;100.00
56811;BME280;42691;47.234;27.494;2022-11-09T03:45:18;100276.66;;;14.60;100.00
56811;BME280;42691;47.234;27.494;2022-11-09T03:47:44;100279.28;;;14.60;100.00
56811;BME280;42691;47.234;27.494;2022-11-09T03:50:11;100273.03;;;14.62;100.00
56811;BME280;42691;47.234;27.494;2022-11-09T03:52:37;100277.44;;;14.62;100.00
56811;BME280;42691;47.234;27.494;2022-11-09T03:55:04;100277.44;;;14.62;100.00
56811;BME280;42691;47.234;27.494;2022-11-09T03:57:30;100275.41;;;14.67;100.00
56811;BME280;42691;47.234;27.494;2022-11-09T03:59:55;100276.16;;;14.69;100.00
56811;BME280;42691;47.234;27.494;2022-11-09T04:02:21;100279.53;;;14.71;100.00
56811;BME280;42691;47.234;27.494;2022-11-09T04:04:47;100280.38;;;14.72;100.00
56811;BME280;42691;47.234;27.494;2022-11-09T04:07:12;100279.44;;;14.73;100.00
56811;BME280;42691;47.234;27.494;2022-11-09T04:09:37;100283.84;;;14.72;100.00
56811;BME280;42691;47.234;27.494;2022-11-09T04:12:03;100278.78;;;14.69;100.00
56811;BME280;42691;47.234;27.494;2022-11-09T04:14:29;100244.75;;;14.53;100.00
56811;BME280;42691;47.234;27.494;2022-11-09T04:16:54;100285.53;;;14.73;100.00
56811;BME280;42691;47.234;27.494;2022-11-09T04:19:20;100286.19;;;14.77;100.00
56811;BME280;42691;47.234;27.494;2022-11-09T04:21:45;100289.66;;;14.77;100.00
56811;BME280;42691;47.234;27.494;2022-11-09T04:24:11;100292.28;;;14.77;100.00
56811;BME280;42691;47.234;27.494;2022-11-09T04:26:36;100295.84;;;14.76;100.00
56811;BME280;42691;47.234;27.494;2022-11-09T04:29:02;100289.75;;;14.76;100.00
56811;BME280;42691;47.234;27.494;2022-11-09T04:31:27;100289.06;;;14.72;100.00
56811;BME280;42691;47.234;27.494;2022-11-09T04:33:53;100298.44;;;14.76;100.00
56811;BME280;42691;47.234;27.494;2022-11-09T04:36:18;100265.44;;;14.58;100.00
56811;BME280;42691;47.234;27.494;2022-11-09T04:38:44;100301.25;;;14.73;100.00
56811;BME280;42691;47.234;27.494;2022-11-09T04:41:09;100301.25;;;14.73;100.00
56811;BME280;42691;47.234;27.494;2022-11-09T04:43:35;100306.47;;;14.73;100.00
56811;BME280;42691;47.234;27.494;2022-11-09T04:46:01;100303.09;;;14.71;100.00
56811;BME280;42691;47.234;27.494;2022-11-09T04:48:27;100299.38;;;14.75;100.00
56811;BME280;42691;47.234;27.494;2022-11-09T04:51:00;100297.53;;;14.77;100.00
56811;BME280;42691;47.234;27.494;2022-11-09T04:53:26;100299.22;;;14.78;100.00
56811;BME280;42691;47.234;27.494;2022-11-09T04:55:52;100306.13;;;14.79;100.00
56811;BME280;42691;47.234;27.494;2022-11-09T04:58:17;100302.59;;;14.80;100.00
56811;BME280;42691;47.234;27.494;2022-11-09T05:00:43;100305.19;;;14.80;100.00
56811;BME280;42691;47.234;27.494;2022-11-09T05:03:08;100313.06;;;14.80;100.00
56811;BME280;42691;47.234;27.494;2022-11-09T05:05:35;100312.31;;;14.78;100.00
56811;BME280;42691;47.234;27.494;2022-11-09T05:08:01;100301.91;;;14.77;100.00
56811;BME280;42691;47.234;27.494;2022-11-09T05:10:27;100307.81;;;14.80;100.00
56811;BME280;42691;47.234;27.494;2022-11-09T05:13:00;100306.97;;;14.80;100.00
56811;BME280;42691;47.234;27.494;2022-11-09T05:15:26;100312.88;;;14.83;100.00
56811;BME280;42691;47.234;27.494;2022-11-09T05:17:52;100310.19;;;14.85;100.00
56811;BME280;42691;47.234;27.494;2022-11-09T05:20:18;100315.34;;;14.86;100.00
56811;BME280;42691;47.234;27.494;2022-11-09T05:22:43;100314.44;;;14.87;100.00
56811;BME280;42691;47.234;27.494;2022-11-09T05:25:27;100309.34;;;14.84;100.00
56811;BME280;42691;47.234;27.494;2022-11-09T05:27:53;100316.13;;;14.88;100.00
56811;BME280;42691;47.234;27.494;2022-11-09T05:30:19;100322.28;;;14.87;100.00
56811;BME280;42691;47.234;27.494;2022-11-09T05:32:44;100333.53;;;14.89;100.00
56811;BME280;42691;47.234;27.494;2022-11-09T05:35:10;100338.78;;;14.89;100.00
56811;BME280;42691;47.234;27.494;2022-11-09T05:37:37;100339.63;;;14.90;100.00
56811;BME280;42691;47.234;27.494;2022-11-09T05:40:03;100324.75;;;14.90;100.00
56811;BME280;42691;47.234;27.494;2022-11-09T05:42:28;100312.88;;;14.83;100.00
56811;BME280;42691;47.234;27.494;2022-11-09T05:44:54;100331.50;;;14.94;100.00
56811;BME280;42691;47.234;27.494;2022-11-09T05:47:20;100347.97;;;14.96;100.00
56811;BME280;42691;47.234;27.494;2022-11-09T05:49:45;100349.56;;;14.99;100.00
56811;BME280;42691;47.234;27.494;2022-11-09T05:52:11;100346.97;;;14.99;100.00
56811;BME280;42691;47.234;27.494;2022-11-09T05:54:37;100336.75;;;14.94;100.00
56811;BME280;42691;47.234;27.494;2022-11-09T05:57:02;100360.72;;;15.02;100.00
56811;BME280;42691;47.234;27.494;2022-11-09T05:59:27;100361.41;;;15.06;100.00
56811;BME280;42691;47.234;27.494;2022-11-09T06:01:53;100343.66;;;14.95;100.00
56811;BME280;42691;47.234;27.494;2022-11-09T06:04:18;100360.56;;;15.06;100.00
56811;BME280;42691;47.234;27.494;2022-11-09T06:06:45;100360.38;;;15.09;100.00
56811;BME280;42691;47.234;27.494;2022-11-09T06:09:10;100362.06;;;15.10;100.00
56811;BME280;42691;47.234;27.494;2022-11-09T06:11:36;100352.69;;;15.06;100.00
56811;BME280;42691;47.234;27.494;2022-11-09T06:14:01;100353.44;;;15.08;100.00
56811;BME280;42691;47.234;27.494;2022-11-09T06:16:27;100353.09;;;15.14;100.00
56811;BME280;42691;47.234;27.494;2022-11-09T06:18:52;100348.97;;;15.25;100.00
56811;BME280;42691;47.234;27.494;2022-11-09T06:21:18;100344.41;;;15.29;100.00
56811;BME280;42691;47.234;27.494;2022-11-09T06:23:43;100358.31;;;15.45;100.00
56811;BME280;42691;47.234;27.494;2022-11-09T06:26:10;100349.41;;;15.48;100.00
56811;BME280;42691;47.234;27.494;2022-11-09T06:28:36;100351.59;;;15.55;100.00
56811;BME280;42691;47.234;27.494;2022-11-09T06:31:04;100354.91;;;15.59;100.00
56811;BME280;42691;47.234;27.494;2022-11-09T06:33:31;100345.13;;;15.62;100.00
56811;BME280;42691;47.234;27.494;2022-11-09T06:35:57;100350.09;;;15.67;100.00
56811;BME280;42691;47.234;27.494;2022-11-09T06:38:24;100346.25;;;15.73;100.00
56811;BME280;42691;47.234;27.494;2022-11-09T06:40:51;100348.59;;;15.77;100.00
56811;BME280;42691;47.234;27.494;2022-11-09T06:43:17;100345.78;;;15.80;100.00
56811;BME280;42691;47.234;27.494;2022-11-09T06:45:43;100341.41;;;15.81;100.00
56811;BME280;42691;47.234;27.494;2022-11-09T06:48:09;100346.47;;;15.84;100.00
56811;BME280;42691;47.234;27.494;2022-11-09T06:50:35;100352.28;;;15.89;100.00
56811;BME280;42691;47.234;27.494;2022-11-09T06:53:03;100348.34;;;15.96;100.00
56811;BME280;42691;47.234;27.494;2022-11-09T06:55:30;100347.41;;;15.97;100.00
56811;BME280;42691;47.234;27.494;2022-11-09T06:57:57;100346.47;;;15.98;100.00
56811;BME280;42691;47.234;27.494;2022-11-09T07:00:24;100353.91;;;16.06;100.00
56811;BME280;42691;47.234;27.494;2022-11-09T07:02:50;100355.41;;;16.10;100.00
56811;BME280;42691;47.234;27.494;2022-11-09T07:05:16;100351.00;;;16.10;100.00
56811;BME280;42691;47.234;27.494;2022-11-09T07:07:42;100349.69;;;16.17;100.00
56811;BME280;42691;47.234;27.494;2022-11-09T07:10:08;100343.03;;;16.12;100.00
56811;BME280;42691;47.234;27.494;2022-11-09T07:12:33;100348.19;;;16.27;100.00
56811;BME280;42691;47.234;27.494;2022-11-09T07:15:00;100349.69;;;16.32;100.00
56811;BME280;42691;47.234;27.494;2022-11-09T07:17:29;100354.28;;;16.28;100.00
56811;BME280;42691;47.234;27.494;2022-11-09T07:19:54;100341.06;;;16.30;100.00
56811;BME280;42691;47.234;27.494;2022-11-09T07:22:19;100330.00;;;16.24;100.00
56811;BME280;42691;47.234;27.494;2022-11-09T07:24:45;100347.28;;;16.43;100.00
56811;BME280;42691;47.234;27.494;2022-11-09T07:27:10;100347.72;;;16.49;100.00
56811;BME280;42691;47.234;27.494;2022-11-09T07:29:36;100344.06;;;16.52;100.00
56811;BME280;42691;47.234;27.494;2022-11-09T07:32:01;100351.00;;;16.53;100.00
56811;BME280;42691;47.234;27.494;2022-11-09T07:34:27;100346.13;;;16.61;100.00
56811;BME280;42691;47.234;27.494;2022-11-09T07:36:52;100329.22;;;16.65;100.00
56811;BME280;42691;47.234;27.494;2022-11-09T07:39:18;100343.97;;;16.68;100.00
56811;BME280;42691;47.234;27.494;2022-11-09T07:41:46;100345.41;;;16.73;100.00
56811;BME280;42691;47.234;27.494;2022-11-09T07:44:12;100341.84;;;16.74;100.00
56811;BME280;42691;47.234;27.494;2022-11-09T07:46:42;100340.69;;;16.78;100.00
56811;BME280;42691;47.234;27.494;2022-11-09T07:49:08;100346.50;;;16.83;100.00
56811;BME280;42691;47.234;27.494;2022-11-09T07:51:34;100341.25;;;16.83;100.00
56811;BME280;42691;47.234;27.494;2022-11-09T07:53:59;100346.50;;;16.83;100.00
56811;BME280;42691;47.234;27.494;2022-11-09T07:56:25;100345.91;;;16.93;100.00
56811;BME280;42691;47.234;27.494;2022-11-09T07:58:50;100344.97;;;16.94;100.00
56811;BME280;42691;47.234;27.494;2022-11-09T08:01:16;100337.28;;;16.91;100.00
56811;BME280;42691;47.234;27.494;2022-11-09T08:03:41;100340.44;;;16.96;100.00
56811;BME280;42691;47.234;27.494;2022-11-09T08:06:07;100353.41;;;16.99;100.00
56811;BME280;42691;47.234;27.494;2022-11-09T08:08:32;100335.78;;;16.86;100.00
56811;BME280;42691;47.234;27.494;2022-11-09T08:10:58;100345.72;;;16.96;100.00
56811;BME280;42691;47.234;27.494;2022-11-09T08:13:24;100350.13;;;16.95;100.00
56811;BME280;42691;47.234;27.494;2022-11-09T08:15:49;100350.78;;;16.99;100.00
56811;BME280;42691;47.234;27.494;2022-11-09T08:18:19;100351.22;;;17.05;100.00
56811;BME280;42691;47.234;27.494;2022-11-09T08:20:45;100352.81;;;17.08;100.00
56811;BME280;42691;47.234;27.494;2022-11-09T08:23:12;100349.06;;;17.12;100.00
56811;BME280;42691;47.234;27.494;2022-11-09T08:25:38;100354.56;;;17.22;100.00
56811;BME280;42691;47.234;27.494;2022-11-09T08:28:04;100312.72;;;17.04;100.00
56811;BME280;42691;47.234;27.494;2022-11-09T08:30:30;100337.94;;;17.21;100.00
56811;BME280;42691;47.234;27.494;2022-11-09T08:32:57;100347.09;;;17.28;100.00
56811;BME280;42691;47.234;27.494;2022-11-09T08:35:23;100340.38;;;17.24;100.00
56811;BME280;42691;47.234;27.494;2022-11-09T08:37:50;100344.16;;;17.20;100.00
56811;BME280;42691;47.234;27.494;2022-11-09T08:40:19;100351.81;;;17.23;100.00
56811;BME280;42691;47.234;27.494;2022-11-09T08:42:44;100364.06;;;17.37;100.00
56811;BME280;42691;47.234;27.494;2022-11-09T08:45:10;100351.47;;;17.42;100.00
56811;BME280;42691;47.234;27.494;2022-11-09T08:47:36;100354.09;;;17.42;100.00
56811;BME280;42691;47.234;27.494;2022-11-09T08:50:03;100358.31;;;17.44;100.00
56811;BME280;42691;47.234;27.494;2022-11-09T08:52:29;100337.88;;;17.35;100.00
56811;BME280;42691;47.234;27.494;2022-11-09T08:54:54;100351.34;;;17.43;100.00
56811;BME280;42691;47.234;27.494;2022-11-09T08:57:20;100346.28;;;17.40;100.00
56811;BME280;42691;47.234;27.494;2022-11-09T08:59:46;100358.13;;;17.47;100.00
56811;BME280;42691;47.234;27.494;2022-11-09T09:02:12;100352.66;;;17.50;100.00
56811;BME280;42691;47.234;27.494;2022-11-09T09:04:38;100356.81;;;17.40;100.00
56811;BME280;42691;47.234;27.494;2022-11-09T09:07:03;100349.47;;;17.45;100.00
56811;BME280;42691;47.234;27.494;2022-11-09T09:09:29;100344.50;;;17.41;100.00
56811;BME280;42691;47.234;27.494;2022-11-09T09:11:54;100356.41;;;17.46;100.00
56811;BME280;42691;47.234;27.494;2022-11-09T09:14:20;100352.88;;;17.47;100.00
56811;BME280;42691;47.234;27.494;2022-11-09T09:16:46;100354.72;;;17.45;100.00
56811;BME280;42691;47.234;27.494;2022-11-09T09:19:12;100347.97;;;17.41;100.00
56811;BME280;42691;47.234;27.494;2022-11-09T09:21:37;100355.56;;;17.46;100.00
56811;BME280;42691;47.234;27.494;2022-11-09T09:24:02;100350.50;;;17.43;100.00
56811;BME280;42691;47.234;27.494;2022-11-09T09:26:28;100357.03;;;17.37;100.00
56811;BME280;42691;47.234;27.494;2022-11-09T09:28:53;100349.66;;;17.42;100.00
56811;BME280;42691;47.234;27.494;2022-11-09T09:31:19;100344.63;;;17.39;100.00
56811;BME280;42691;47.234;27.494;2022-11-09T09:33:44;100353.03;;;17.44;100.00
56811;BME280;42691;47.234;27.494;2022-11-09T09:36:19;100349.66;;;17.42;100.00
56811;BME280;42691;47.234;27.494;2022-11-09T09:38:45;100349.34;;;17.34;100.00
56811;BME280;42691;47.234;27.494;2022-11-09T09:41:32;100345.34;;;17.41;100.00
56811;BME280;42691;47.234;27.494;2022-11-09T09:44:07;100339.16;;;17.42;100.00
56811;BME280;42691;47.234;27.494;2022-11-09T09:46:51;100338.31;;;17.42;100.00
56811;BME280;42691;47.234;27.494;2022-11-09T09:49:27;100332.66;;;17.48;100.00
56811;BME280;42691;47.234;27.494;2022-11-09T09:52:10;100337.09;;;17.47;100.00
56811;BME280;42691;47.234;27.494;2022-11-09T09:54:42;100333.50;;;17.48;100.00
56811;BME280;42691;47.234;27.494;2022-11-09T09:57:19;100332.09;;;17.43;100.00
56811;BME280;42691;47.234;27.494;2022-11-09T09:59:50;100329.88;;;17.37;100.00
56811;BME280;42691;47.234;27.494;2022-11-09T10:04:45;100329.56;;;17.41;100.00
56811;BME280;42691;47.234;27.494;2022-11-09T10:08:20;100327.16;;;17.38;100.00
56811;BME280;42691;47.234;27.494;2022-11-09T10:27:25;100304.41;;;17.37;100.00
56811;BME280;42691;47.234;27.494;2022-11-09T10:29:51;100306.00;;;17.40;100.00
56811;BME280;42691;47.234;27.494;2022-11-09T10:32:21;100291.47;;;17.34;100.00
56811;BME280;42691;47.234;27.494;2022-11-09T10:37:47;100294.84;;;17.36;100.00
56811;BME280;42691;47.234;27.494;2022-11-09T10:40:34;100297.28;;;17.39;100.00
56811;BME280;42691;47.234;27.494;2022-11-09T10:43:08;100286.97;;;17.36;100.00
56811;BME280;42691;47.234;27.494;2022-11-09T10:45:39;100289.38;;;17.39;100.00
56811;BME280;42691;47.234;27.494;2022-11-09T10:48:07;100282.22;;;17.41;100.00
56811;BME280;42691;47.234;27.494;2022-11-09T10:50:48;100271.19;;;17.36;100.00
56811;BME280;42691;47.234;27.494;2022-11-09T10:55:53;100271.50;;;17.44;100.00
56811;BME280;42691;47.234;27.494;2022-11-09T10:58:39;100276.66;;;17.46;100.00
56811;BME280;42691;47.234;27.494;2022-11-09T11:01:21;100266.66;;;17.38;100.00
56811;BME280;42691;47.234;27.494;2022-11-09T11:03:54;100264.66;;;17.42;100.00
56811;BME280;42691;47.234;27.494;2022-11-09T11:11:37;100266.13;;;17.33;100.00
56811;BME280;42691;47.234;27.494;2022-11-09T11:16:36;100257.69;;;17.28;100.00
56811;BME280;42691;47.234;27.494;2022-11-09T11:19:03;100260.13;;;17.31;100.00
56811;BME280;42691;47.234;27.494;2022-11-09T11:21:29;100246.13;;;17.31;100.00
56811;BME280;42691;47.234;27.494;2022-11-09T11:24:16;100252.13;;;17.33;100.00
56811;BME280;42691;47.234;27.494;2022-11-09T11:31:46;100244.56;;;17.28;100.00
56811;BME280;42691;47.234;27.494;2022-11-09T11:34:13;100247.19;;;17.28;100.00
56811;BME280;42691;47.234;27.494;2022-11-09T11:37:00;100244.88;;;17.36;100.00
56811;BME280;42691;47.234;27.494;2022-11-09T11:50:56;100239.41;;;17.39;100.00
56811;BME280;42691;47.234;27.494;2022-11-09T11:56:21;100240.03;;;17.43;100.00
56811;BME280;42691;47.234;27.494;2022-11-09T11:59:32;100236.28;;;17.47;100.00
56811;BME280;42691;47.234;27.494;2022-11-09T12:15:21;100233.44;;;17.50;100.00
56811;BME280;42691;47.234;27.494;2022-11-09T12:31:52;100226.78;;;17.44;100.00
56811;BME280;42691;47.234;27.494;2022-11-09T12:34:38;100221.13;;;17.50;100.00
56811;BME280;42691;47.234;27.494;2022-11-09T12:37:12;100221.03;;;17.52;100.00
56811;BME280;42691;47.234;27.494;2022-11-09T12:40:24;100220.94;;;17.54;100.00
56811;BME280;42691;47.234;27.494;2022-11-09T12:42:48;100224.81;;;17.61;100.00
56811;BME280;42691;47.234;27.494;2022-11-09T12:45:32;100225.75;;;17.60;100.00
56811;BME280;42691;47.234;27.494;2022-11-09T12:50:46;100222.19;;;17.61;100.00
56811;BME280;42691;47.234;27.494;2022-11-09T12:53:12;100225.16;;;17.69;100.00
56811;BME280;42691;47.234;27.494;2022-11-09T12:55:46;100222.53;;;17.69;100.00
56811;BME280;42691;47.234;27.494;2022-11-09T12:58:28;100225.88;;;17.71;100.00
56811;BME280;42691;47.234;27.494;2022-11-09T13:01:03;100227.78;;;17.69;100.00
56811;BME280;42691;47.234;27.494;2022-11-09T13:03:36;100230.41;;;17.69;100.00
56811;BME280;42691;47.234;27.494;2022-11-09T13:08:34;100232.09;;;17.70;100.00
56811;BME280;42691;47.234;27.494;2022-11-09T13:11:17;100229.75;;;17.65;100.00
56811;BME280;42691;47.234;27.494;2022-11-09T13:13:44;100239.03;;;17.71;100.00
56811;BME280;42691;47.234;27.494;2022-11-09T13:23:48;100230.00;;;17.75;100.00
56811;BME280;42691;47.234;27.494;2022-11-09T13:29:21;100227.25;;;17.76;100.00
56811;BME280;42691;47.234;27.494;2022-11-09T13:34:46;100225.34;;;17.78;100.00
56811;BME280;42691;47.234;27.494;2022-11-09T13:43:13;100214.81;;;17.78;100.00
56811;BME280;42691;47.234;27.494;2022-11-09T13:45:43;100214.94;;;17.77;100.00
56811;BME280;42691;47.234;27.494;2022-11-09T13:48:28;100210.22;;;17.69;100.00
56811;BME280;42691;47.234;27.494;2022-11-09T13:50:59;100213.97;;;17.78;100.00
56811;BME280;42691;47.234;27.494;2022-11-09T13:55:55;100199.16;;;17.77;100.00
56811;BME280;42691;47.234;27.494;2022-11-09T13:58:32;100194.31;;;17.71;100.00
56811;BME280;42691;47.234;27.494;2022-11-09T14:00:58;100209.88;;;17.74;100.00
56811;BME280;42691;47.234;27.494;2022-11-09T14:03:26;100190.00;;;17.70;100.00
56811;BME280;42691;47.234;27.494;2022-11-09T14:06:00;100205.75;;;17.83;100.00
56811;BME280;42691;47.234;27.494;2022-11-09T14:08:32;100199.88;;;17.79;100.00
56811;BME280;42691;47.234;27.494;2022-11-09T14:14:26;100199.78;;;17.68;100.00
56811;BME280;42691;47.234;27.494;2022-11-09T14:17:38;100197.16;;;17.68;100.00
56811;BME280;42691;47.234;27.494;2022-11-09T14:22:50;100199.03;;;17.66;100.00
56811;BME280;42691;47.234;27.494;2022-11-09T14:25:18;100201.66;;;17.66;100.00
56811;BME280;42691;47.234;27.494;2022-11-09T14:27:46;100202.59;;;17.65;100.00
56811;BME280;42691;47.234;27.494;2022-11-09T14:30:16;100210.94;;;17.59;100.00
56811;BME280;42691;47.234;27.494;2022-11-09T14:32:47;100201.13;;;17.61;100.00
56811;BME280;42691;47.234;27.494;2022-11-09T14:37:47;100206.81;;;17.55;100.00
56811;BME280;42691;47.234;27.494;2022-11-09T14:40:18;100205.97;;;17.54;100.00